^^
Datos históricos de la estación: Murcia-Puente Tocinos
Diario Informe para Diciembre 21, 2019 Unidades:  Métrico    Ingés   Ambas
Diario Semanal Mensual Anual
  Máxima: Mínima: Promedio:
Temperatura: 23.7 °C 14.5 °C 19.7 °C
Punto de rocio: 14.2 °C 4.1 °C 11.8 °C
Humedad: 86.6% 32% 63%
Velocidad viento: 27km/h 0km/h 12.4km/h
Racha viento: 50.1km/h - -
Viento- - Sur
Presión: 1009.2 hPa 1002.2 hPa -
Precipitación: 0.0 mm    
 
 
Tabla de datos para Diciembre 21, 2019
Hora Temperatura Punto de rocio Presión Viento Velocidad viento Racha viento Humedad Intensidad lluvia(por hora) Nubes
00:04 19.1 °C 13.1 °C 1002.2 hPa SSO 16 km/h 25.7 km/h 68.5% 0.0 mm
00:09 19.3 °C 13.1 °C 1002.3 hPa SSO 15.6 km/h 31.7 km/h 67.4% 0.0 mm
00:14 19.7 °C 13.2 °C 1002.3 hPa SSO 16.9 km/h 32.2 km/h 66.1% 0.0 mm
00:19 19.8 °C 13.1 °C 1002.3 hPa SSO 18 km/h 29.8 km/h 65.2% 0.0 mm
00:24 19.9 °C 13.1 °C 1002.3 hPa SSO 18.2 km/h 30.6 km/h 65% 0.0 mm
00:29 19.8 °C 13.1 °C 1002.2 hPa SSO 18.4 km/h 30.6 km/h 65% 0.0 mm
00:34 19.7 °C 13.1 °C 1002.2 hPa SSO 17.3 km/h 30.6 km/h 65.5% 0.0 mm
00:39 19.5 °C 13.1 °C 1002.3 hPa SSO 16.4 km/h 27.8 km/h 66.4% 0.0 mm
00:44 19.3 °C 13 °C 1002.3 hPa SSO 16 km/h 27.4 km/h 67% 0.0 mm
00:49 19.2 °C 13.1 °C 1002.3 hPa SO 15.6 km/h 22.5 km/h 67.8% 0.0 mm
00:54 19.1 °C 13 °C 1002.5 hPa SO 13.2 km/h 18.5 km/h 68% 0.0 mm
00:59 19 °C 12.9 °C 1002.5 hPa SO 11.1 km/h 19.3 km/h 68% 0.0 mm
01:04 18.9 °C 12.9 °C 1002.5 hPa SSO 9.8 km/h 19 km/h 68% 0.0 mm
01:09 19 °C 12.9 °C 1002.5 hPa SSO 8.7 km/h 20.9 km/h 68% 0.0 mm
01:14 19 °C 12.9 °C 1002.5 hPa SO 9.9 km/h 20.9 km/h 68% 0.0 mm
01:19 18.9 °C 12.9 °C 1002.5 hPa SSO 11.1 km/h 16.7 km/h 68% 0.0 mm
01:24 18.9 °C 12.9 °C 1002.7 hPa SO 10.3 km/h 16.1 km/h 68% 0.0 mm
01:29 18.9 °C 12.9 °C 1002.7 hPa SSO 9.5 km/h 16.1 km/h 68% 0.0 mm
01:34 18.8 °C 12.8 °C 1002.7 hPa SSO 8.1 km/h 12.9 km/h 68% 0.0 mm
01:39 18.8 °C 12.8 °C 1002.7 hPa SSE 6.9 km/h 11.3 km/h 68% 0.0 mm
01:44 18.8 °C 12.8 °C 1002.7 hPa Sur 6.4 km/h 10 km/h 68% 0.0 mm
01:49 18.9 °C 12.9 °C 1002.7 hPa SSO 5.8 km/h 13 km/h 68% 0.0 mm
01:54 19.1 °C 12.8 °C 1002.7 hPa SO 7.1 km/h 14.8 km/h 67.1% 0.0 mm
01:59 19.2 °C 12.9 °C 1002.6 hPa SSO 8.4 km/h 14.5 km/h 67% 0.0 mm
02:04 19.2 °C 12.9 °C 1002.6 hPa SSO 7.9 km/h 12.9 km/h 67% 0.0 mm
02:09 19.2 °C 13 °C 1002.6 hPa SSO 7.6 km/h 11.3 km/h 67% 0.0 mm
02:14 19.3 °C 12.8 °C 1002.5 hPa Sur 7 km/h 9.7 km/h 66.2% 0.0 mm
02:19 19.3 °C 12.8 °C 1002.5 hPa Sur 6.5 km/h 9.7 km/h 66.1% 0.0 mm
02:24 19.2 °C 12.9 °C 1002.8 hPa Sur 6.1 km/h 9.7 km/h 67% 0.0 mm
02:29 19.2 °C 12.9 °C 1002.8 hPa SSO 5.8 km/h 8 km/h 67% 0.0 mm
02:34 19.1 °C 12.8 °C 1002.8 hPa SSO 4.8 km/h 8 km/h 67% 0.0 mm
02:39 18.9 °C 12.8 °C 1002.9 hPa SSE 3.9 km/h 8 km/h 67.8% 0.0 mm
02:44 18.7 °C 12.8 °C 1002.9 hPa ENE 1.9 km/h 5.6 km/h 68.4% 0.0 mm
02:49 18.6 °C 12.8 °C 1002.9 hPa Calm   3.2 km/h 69% 0.0 mm
02:54 18.4 °C 12.8 °C 1003.1 hPa Calm     69.7% 0.0 mm
02:59 18.3 °C 12.7 °C 1003.1 hPa Calm     70.3% 0.0 mm
03:04 18.2 °C 12.8 °C 1003.1 hPa Calm   3.2 km/h 71% 0.0 mm
03:09 18.2 °C 12.8 °C 1003.3 hPa Calm   3.9 km/h 71% 0.0 mm
03:14 18.2 °C 12.9 °C 1003.3 hPa Calm   3.7 km/h 71% 0.0 mm
03:19 18.2 °C 12.8 °C 1003.3 hPa Calm   8.4 km/h 70.7% 0.0 mm
03:24 17.9 °C 12.7 °C 1003.7 hPa NNE 2 km/h 10.3 km/h 71.4% 0.0 mm
03:29 17.6 °C 12.6 °C 1003.7 hPa NNE 3.9 km/h 11.3 km/h 72.5% 0.0 mm
03:34 17.2 °C 12.5 °C 1003.7 hPa NNE 5.2 km/h 11.1 km/h 74.2% 0.0 mm
03:39 16.9 °C 12.6 °C 1003.9 hPa NE 6.5 km/h 11.3 km/h 75.5% 0.0 mm
03:44 16.9 °C 12.7 °C 1003.9 hPa NE 7 km/h 11.3 km/h 76% 0.0 mm
03:49 16.9 °C 12.7 °C 1003.9 hPa ENE 7.6 km/h 11.3 km/h 76% 0.0 mm
03:54 16.9 °C 12.7 °C 1003.9 hPa ENE 7.2 km/h 11.3 km/h 76% 0.0 mm
03:59 17.1 °C 12.8 °C 1003.9 hPa NE 6.9 km/h 10 km/h 76% 0.0 mm
04:04 17.1 °C 12.6 °C 1003.9 hPa NNE 6.3 km/h 9.7 km/h 75% 0.0 mm
04:09 17.1 °C 12.8 °C 1003.9 hPa NE 5.8 km/h 10 km/h 75.7% 0.0 mm
04:14 17.2 °C 12.8 °C 1003.9 hPa NE 6.1 km/h 10.3 km/h 75.6% 0.0 mm
04:19 17.4 °C 12.9 °C 1003.9 hPa NE 6.5 km/h 11.3 km/h 74.6% 0.0 mm
04:24 17.8 °C 12.9 °C 1003.9 hPa ENE 6.5 km/h 9.7 km/h 73.3% 0.0 mm
04:29 18.1 °C 13 °C 1003.8 hPa ENE 6.5 km/h 11.1 km/h 71.9% 0.0 mm
04:34 18.3 °C 12.9 °C 1003.8 hPa NE 5.5 km/h 11.3 km/h 70.7% 0.0 mm
04:39 18.2 °C 12.9 °C 1004.0 hPa North 4.6 km/h 7.4 km/h 71% 0.0 mm
04:44 18 °C 12.8 °C 1004.0 hPa North 3.9 km/h 8 km/h 71.5% 0.0 mm
04:49 17.8 °C 12.8 °C 1004.0 hPa NE 3.2 km/h 8 km/h 72.6% 0.0 mm
04:54 17.6 °C 12.8 °C 1004.0 hPa ENE 3.6 km/h 8.4 km/h 73.4% 0.0 mm
04:59 17.4 °C 12.8 °C 1003.9 hPa NNE 3.9 km/h 8.4 km/h 74% 0.0 mm
05:04 17.3 °C 12.6 °C 1003.9 hPa North 4.3 km/h 8 km/h 74.3% 0.0 mm
05:09 17 °C 12.6 °C 1004.0 hPa North 4.6 km/h 8.4 km/h 75.6% 0.0 mm
05:14 16.7 °C 12.7 °C 1004.0 hPa NNE 4.7 km/h 8 km/h 76.8% 0.0 mm
05:19 16.6 °C 12.7 °C 1004.0 hPa NNE 4.6 km/h 9.3 km/h 77.8% 0.0 mm
05:24 16.5 °C 12.7 °C 1004.1 hPa North 4.2 km/h 9.7 km/h 78.1% 0.0 mm
05:29 16.4 °C 12.8 °C 1004.1 hPa NNO 3.9 km/h 8 km/h 79% 0.0 mm
05:34 16.4 °C 12.7 °C 1004.1 hPa Oeste 3.9 km/h 8 km/h 79% 0.0 mm
05:39 16.4 °C 12.7 °C 1004.1 hPa Oeste 3.9 km/h 8 km/h 79% 0.0 mm
05:44 16.4 °C 12.7 °C 1004.1 hPa Oeste 4.3 km/h 8 km/h 79% 0.0 mm
05:49 16.4 °C 12.7 °C 1004.1 hPa Oeste 4.7 km/h 8 km/h 79% 0.0 mm
05:54 16.4 °C 12.7 °C 1004.4 hPa OSO 4.2 km/h 9.3 km/h 79% 0.0 mm
05:59 16.3 °C 12.7 °C 1004.4 hPa OSO 3.9 km/h 9.7 km/h 79% 0.0 mm
06:04 16.2 °C 12.6 °C 1004.4 hPa SE 3.5 km/h 7.6 km/h 79% 0.0 mm
06:09 16 °C 12.6 °C 1004.4 hPa ESE 3.2 km/h 8.4 km/h 80% 0.0 mm
06:14 15.8 °C 12.6 °C 1004.4 hPa ESE 4 km/h 8 km/h 80.9% 0.0 mm
06:19 15.8 °C 12.7 °C 1004.4 hPa ESE 4.7 km/h 6.4 km/h 81.7% 0.0 mm
06:24 15.7 °C 12.6 °C 1004.5 hPa ESE 3.4 km/h 4.8 km/h 82% 0.0 mm
06:29 15.8 °C 12.7 °C 1004.5 hPa ESE 2.2 km/h 5.8 km/h 82.2% 0.0 mm
06:34 16 °C 12.9 °C 1004.5 hPa SSE 2.6 km/h 8.4 km/h 81.7% 0.0 mm
06:39 16.1 °C 12.8 °C 1004.5 hPa SE 2.9 km/h 8 km/h 80.9% 0.0 mm
06:44 16.1 °C 12.8 °C 1004.4 hPa ESE 4.4 km/h 8 km/h 80.7% 0.0 mm
06:49 16.1 °C 12.8 °C 1004.4 hPa SO 5.8 km/h 8 km/h 80.7% 0.0 mm
06:54 16 °C 12.7 °C 1004.8 hPa SSO 5.2 km/h 8.4 km/h 81% 0.0 mm
06:59 16 °C 12.8 °C 1004.8 hPa SSO 4.7 km/h 8 km/h 81% 0.0 mm
07:04 15.9 °C 12.7 °C 1004.8 hPa SSO 2 km/h 5 km/h 81% 0.0 mm
07:09 15.8 °C 12.6 °C 1005.1 hPa Calm   7.4 km/h 81% 0.0 mm
07:14 15.7 °C 12.5 °C 1005.1 hPa OSO 1.6 km/h 8 km/h 81.5% 0.0 mm
07:19 15.5 °C 12.4 °C 1005.1 hPa OSO 3.2 km/h 5 km/h 82% 0.0 mm
07:24 15.3 °C 12.3 °C 1005.1 hPa OSO 1.6 km/h 5.6 km/h 82% 0.0 mm
07:29 15.2 °C 12.3 °C 1005.0 hPa Calm   7.4 km/h 82.9% 0.0 mm
07:34 15.2 °C 12.4 °C 1005.0 hPa OSO 1.5 km/h 10 km/h 83.2% 0.0 mm
07:39 15.2 °C 12.5 °C 1005.2 hPa ONO 2.9 km/h 11.1 km/h 84% 0.0 mm
07:44 15.3 °C 12.5 °C 1005.2 hPa SSO 4.8 km/h 11.3 km/h 83.3% 0.0 mm
07:49 15.2 °C 12.5 °C 1005.2 hPa SO 6.5 km/h 11.3 km/h 83.8% 0.0 mm
07:54 15.3 °C 12.5 °C 1005.2 hPa Sur 4.7 km/h 9.7 km/h 83.3% 0.0 mm
07:59 15.4 °C 12.6 °C 1005.2 hPa Sur 3.2 km/h 8 km/h 83.4% 0.0 mm
08:04 15.4 °C 12.5 °C 1005.2 hPa Sur 3.2 km/h 8 km/h 83% 0.0 mm
08:09 15.3 °C 12.5 °C 1005.2 hPa Sur 3.2 km/h 5.6 km/h 83% 0.0 mm
08:14 15.3 °C 12.4 °C 1005.2 hPa Sur 2.7 km/h 4.8 km/h 82.9% 0.0 mm
08:19 15.3 °C 12.4 °C 1005.2 hPa Sur 2.2 km/h 7.4 km/h 83% 0.0 mm
08:24 15.3 °C 12.5 °C 1005.4 hPa SSO 2.6 km/h 9.3 km/h 83.4% 0.0 mm
08:29 15.6 °C 12.8 °C 1005.4 hPa OSO 2.9 km/h 9.7 km/h 83.1% 0.0 mm
08:34 15.8 °C 12.6 °C 1005.4 hPa ONO 4.4 km/h 11.1 km/h 81.5% 0.0 mm
08:39 15.5 °C 12.2 °C 1005.6 hPa ONO 5.8 km/h 11.9 km/h 80.4% 0.0 mm
08:44 15.1 °C 12.1 °C 1005.6 hPa ONO 6.1 km/h 11.3 km/h 82.1% 0.0 mm
08:49 14.8 °C 12 °C 1005.6 hPa Oeste 6.5 km/h 9.7 km/h 83.6% 0.0 mm
08:54 14.7 °C 12.1 °C 1005.6 hPa Oeste 6.5 km/h 11.9 km/h 84.7% 0.0 mm
08:59 14.7 °C 12.4 °C 1005.6 hPa Oeste 6.5 km/h 11.9 km/h 85.9% 0.0 mm
09:04 14.8 °C 12.5 °C 1005.6 hPa Oeste 7.6 km/h 11.3 km/h 85.9% 0.0 mm
09:09 14.8 °C 12.3 °C 1005.6 hPa SO 8.4 km/h 8 km/h 85% 0.0 mm
09:14 14.7 °C 12.2 °C 1005.6 hPa SO 6.4 km/h 8.4 km/h 85% 0.0 mm
09:19 14.7 °C 12.2 °C 1005.6 hPa Sur 4.7 km/h 9.3 km/h 85.2% 0.0 mm
09:24 14.6 °C 12.3 °C 1005.7 hPa SSO 4.7 km/h 9.7 km/h 85.8% 0.0 mm
09:29 14.6 °C 12.1 °C 1005.7 hPa NO 4.7 km/h 8 km/h 85% 0.0 mm
09:34 14.5 °C 12.2 °C 1005.7 hPa NO 4.3 km/h 8 km/h 86% 0.0 mm
09:39 14.6 °C 12.3 °C 1006.1 hPa NO 3.9 km/h 6.4 km/h 86% 0.0 mm
09:44 14.7 °C 12.4 °C 1006.1 hPa NO 3.4 km/h 7.4 km/h 86.4% 0.0 mm
09:49 15 °C 12.8 °C 1006.1 hPa Oeste 2.9 km/h 8 km/h 86.6% 0.0 mm
09:54 15.3 °C 12.7 °C 1006.1 hPa Oeste 3.8 km/h 8 km/h 84.8% 0.0 mm
09:59 15.3 °C 12.6 °C 1006.0 hPa SSE 4.7 km/h 5.8 km/h 84% 0.0 mm
10:04 15.3 °C 12.6 °C 1006.0 hPa Este 3.7 km/h 7.4 km/h 83.8% 0.0 mm
10:09 15.3 °C 12.6 °C 1006.1 hPa NE 2.9 km/h 8 km/h 83.9% 0.0 mm
10:14 15.2 °C 12.5 °C 1006.1 hPa NE 2.6 km/h 3.2 km/h 84% 0.0 mm
10:19 15.2 °C 12.5 °C 1006.1 hPa NE 2.2 km/h 7.4 km/h 84% 0.0 mm
10:24 15.2 °C 12.5 °C 1006.2 hPa NE 2.6 km/h 8 km/h 84% 0.0 mm
10:29 15.2 °C 12.5 °C 1006.2 hPa NE 2.9 km/h 5.8 km/h 84% 0.0 mm
10:34 15.3 °C 12.6 °C 1006.2 hPa NE 2.6 km/h 7.4 km/h 84% 0.0 mm
10:39 15.3 °C 12.7 °C 1006.3 hPa NNE 2.2 km/h 8 km/h 84.1% 0.0 mm
10:44 15.4 °C 12.7 °C 1006.3 hPa North 3.5 km/h 8.4 km/h 84% 0.0 mm
10:49 15.4 °C 12.8 °C 1006.3 hPa North 4.6 km/h 8 km/h 84.4% 0.0 mm
10:54 15.5 °C 13 °C 1006.4 hPa NNE 4.7 km/h 8 km/h 85% 0.0 mm
10:59 15.5 °C 13 °C 1006.4 hPa NE 4.7 km/h 8 km/h 85% 0.0 mm
11:04 15.6 °C 13.1 °C 1006.4 hPa NNE 4.7 km/h 8 km/h 85% 0.0 mm
11:09 15.6 °C 13.1 °C 1006.5 hPa NNE 4.6 km/h 8 km/h 85% 0.0 mm
11:14 15.6 °C 13.1 °C 1006.5 hPa NNE 4.8 km/h 8 km/h 85% 0.0 mm
11:19 15.7 °C 13.2 °C 1006.5 hPa NNE 5 km/h 8 km/h 85% 0.0 mm
11:24 15.7 °C 13.2 °C 1006.5 hPa NNO 4.1 km/h 8 km/h 85% 0.0 mm
11:29 15.8 °C 13.3 °C 1006.5 hPa NNO 3.2 km/h 6.4 km/h 85% 0.0 mm
11:34 15.9 °C 13.4 °C 1006.5 hPa NE 3 km/h 7.6 km/h 85% 0.0 mm
11:39 16.1 °C 13.5 °C 1006.5 hPa NE 2.9 km/h 9.3 km/h 85% 0.0 mm
11:44 16.1 °C 13.6 °C 1006.3 hPa NNE 3.8 km/h 9.7 km/h 85% 0.0 mm
11:49 16.2 °C 13.6 °C 1006.3 hPa NNE 4.7 km/h 8.4 km/h 85% 0.0 mm
11:54 16.2 °C 13.6 °C 1006.3 hPa North 4.7 km/h 9.5 km/h 84.1% 0.0 mm
11:59 16.3 °C 13.6 °C 1006.2 hPa North 4.7 km/h 10 km/h 84% 0.0 mm
12:04 16.4 °C 13.7 °C 1006.2 hPa NNE 5.9 km/h 11.1 km/h 84% 0.0 mm
12:09 16.5 °C 13.8 °C 1006.2 hPa North 6.9 km/h 11.3 km/h 84% 0.0 mm
12:14 16.7 °C 13.9 °C 1006.1 hPa NE 5.9 km/h 9.5 km/h 83.4% 0.0 mm
12:19 17.1 °C 14 °C 1006.1 hPa ENE 5 km/h 9.7 km/h 82% 0.0 mm
12:24 17.4 °C 13.8 °C 1006.1 hPa Este 4.4 km/h 9.7 km/h 79.6% 0.0 mm
12:29 18.2 °C 14 °C 1006.1 hPa SSE 3.9 km/h 14.8 km/h 76.7% 0.0 mm
12:34 19.4 °C 14.2 °C 1006.1 hPa Sur 6.9 km/h 19 km/h 71.8% 0.0 mm
12:39 20.2 °C 14.2 °C 1006.1 hPa Sur 8.4 km/h 19.3 km/h 68.1% 0.0 mm
12:44 20.7 °C 14.1 °C 1005.8 hPa Sur 9.7 km/h 19.3 km/h 65.6% 0.0 mm
12:49 21 °C 13.9 °C 1005.8 hPa Sur 11.1 km/h 24.5 km/h 63.6% 0.0 mm
12:54 21.4 °C 13.8 °C 1005.8 hPa SSE 11.5 km/h 24.1 km/h 61.9% 0.0 mm
12:59 21.6 °C 13.3 °C 1005.8 hPa SSO 11.9 km/h 31.5 km/h 59.1% 0.0 mm
13:04 22.2 °C 12.9 °C 1005.8 hPa SSO 13 km/h 32.2 km/h 55.6% 0.0 mm
13:09 22.5 °C 12.8 °C 1005.8 hPa SSO 14 km/h 37.8 km/h 54.1% 0.0 mm
13:14 22.8 °C 12.7 °C 1005.6 hPa SSO 17.3 km/h 42.6 km/h 52.9% 0.0 mm
13:19 22.9 °C 12.5 °C 1005.6 hPa SSO 20.1 km/h 41.8 km/h 52% 0.0 mm
13:24 22.9 °C 12.5 °C 1005.6 hPa SSO 20.5 km/h 37 km/h 52% 0.0 mm
13:29 22.9 °C 12.3 °C 1005.2 hPa SSO 20.9 km/h 37 km/h 51.4% 0.0 mm
13:34 23 °C 12.1 °C 1005.2 hPa SSO 21.5 km/h 41.2 km/h 50.4% 0.0 mm
13:39 23.1 °C 12.1 °C 1005.4 hPa SSO 22.1 km/h 41.8 km/h 50% 0.0 mm
13:44 23.1 °C 12 °C 1005.4 hPa SSO 22.1 km/h 44.9 km/h 49.6% 0.0 mm
13:49 23.2 °C 11.9 °C 1005.4 hPa SSO 22.1 km/h 45.1 km/h 49% 0.0 mm
13:54 23.2 °C 11.9 °C 1005.4 hPa SSO 24.5 km/h 41.2 km/h 49% 0.0 mm
13:59 23.2 °C 11.8 °C 1004.9 hPa SSO 27 km/h 41.8 km/h 48.5% 0.0 mm
14:04 23.3 °C 11.7 °C 1004.9 hPa SSO 25.9 km/h 40.2 km/h 48% 0.0 mm
14:09 23.3 °C 11.8 °C 1005.0 hPa SSO 25.1 km/h 37 km/h 48.5% 0.0 mm
14:14 23.2 °C 11.6 °C 1005.0 hPa SSO 23.6 km/h 38.9 km/h 48.1% 0.0 mm
14:19 23.2 °C 11.6 °C 1005.0 hPa SSO 22.1 km/h 44.9 km/h 48% 0.0 mm
14:24 23.2 °C 11.6 °C 1005.0 hPa SSO 22.9 km/h 50.1 km/h 48% 0.0 mm
14:29 23.2 °C 11.5 °C 1004.7 hPa SSO 23.7 km/h 49.9 km/h 48% 0.0 mm
14:34 23.1 °C 11.5 °C 1004.7 hPa SSO 23.1 km/h 37.8 km/h 48% 0.0 mm
14:39 23.1 °C 11.5 °C 1004.9 hPa SSO 22.5 km/h 38.9 km/h 48% 0.0 mm
14:44 23.1 °C 11.5 °C 1004.9 hPa SSO 23.5 km/h 44.4 km/h 48.1% 0.0 mm
14:49 23 °C 11.5 °C 1004.9 hPa SSO 24.5 km/h 46.3 km/h 48.2% 0.0 mm
14:54 23.1 °C 11.5 °C 1004.9 hPa SSO 24 km/h 46.7 km/h 48% 0.0 mm
14:59 23.1 °C 11.5 °C 1004.7 hPa SSO 23.7 km/h 48.1 km/h 48.2% 0.0 mm
15:04 23.1 °C 11.7 °C 1004.7 hPa SSO 23.7 km/h 48.3 km/h 48.6% 0.0 mm
15:09 23.1 °C 11.7 °C 1004.7 hPa SSO 23.7 km/h 38.9 km/h 48.6% 0.0 mm
15:14 23.1 °C 11.7 °C 1004.5 hPa SSO 23.5 km/h 38.6 km/h 48.8% 0.0 mm
15:19 23.2 °C 11.6 °C 1004.5 hPa SSO 23.3 km/h 37.8 km/h 48% 0.0 mm
15:24 23.2 °C 11.6 °C 1004.5 hPa SSO 22.6 km/h 37 km/h 48.2% 0.0 mm
15:29 23.2 °C 11.6 °C 1004.4 hPa SSO 22.1 km/h 39.6 km/h 48% 0.0 mm
15:34 23.3 °C 11.7 °C 1004.4 hPa SSO 21.9 km/h 40.2 km/h 48% 0.0 mm
15:39 23.2 °C 11.6 °C 1004.4 hPa SSO 21.7 km/h 35.4 km/h 48% 0.0 mm
15:44 23.3 °C 11.6 °C 1004.3 hPa SSO 21.3 km/h 40.7 km/h 48% 0.0 mm
15:49 23.4 °C 11.8 °C 1004.3 hPa SSO 20.9 km/h 40.2 km/h 48% 0.0 mm
15:54 23.4 °C 11.8 °C 1004.3 hPa SSO 21.3 km/h 44.4 km/h 48% 0.0 mm
15:59 23.5 °C 11.8 °C 1003.8 hPa SSO 21.7 km/h 45.1 km/h 48% 0.0 mm
16:04 23.5 °C 11.8 °C 1003.8 hPa SSO 21.3 km/h 37 km/h 48% 0.0 mm
16:09 23.6 °C 11.8 °C 1004.1 hPa SSO 20.9 km/h 43.9 km/h 47.7% 0.0 mm
16:14 23.7 °C 11.7 °C 1004.1 hPa SSO 22.3 km/h 46.8 km/h 47.1% 0.0 mm
16:19 23.6 °C 11.8 °C 1004.1 hPa SSO 23.7 km/h 46.7 km/h 47.5% 0.0 mm
16:24 23.7 °C 11.7 °C 1004.1 hPa SSO 22.7 km/h 40.2 km/h 47.1% 0.0 mm
16:29 23.6 °C 11.9 °C 1003.9 hPa Sur 21.7 km/h 34.3 km/h 48% 0.0 mm
16:34 23.4 °C 11.9 °C 1003.9 hPa Sur 19.3 km/h 34.3 km/h 48.6% 0.0 mm
16:39 23.3 °C 12 °C 1003.9 hPa Sur 17.2 km/h 33.8 km/h 49% 0.0 mm
16:44 23.2 °C 11.9 °C 1003.8 hPa Sur 18.1 km/h 41.2 km/h 49% 0.0 mm
16:49 23.2 °C 11.9 °C 1003.8 hPa SSO 19 km/h 41.8 km/h 49% 0.0 mm
16:54 23.3 °C 12 °C 1003.8 hPa SSO 20.9 km/h 37.8 km/h 49% 0.0 mm
16:59 23.4 °C 12 °C 1003.8 hPa SSO 22.5 km/h 40.7 km/h 49% 0.0 mm
17:04 23.4 °C 12 °C 1003.8 hPa SSO 22.3 km/h 40.2 km/h 49% 0.0 mm
17:09 23.4 °C 12.1 °C 1003.9 hPa SSO 22.1 km/h 44.4 km/h 49% 0.0 mm
17:14 23.4 °C 12.1 °C 1003.9 hPa SSO 22.1 km/h 45.1 km/h 49% 0.0 mm
17:19 23.3 °C 12 °C 1003.9 hPa SSO 22.1 km/h 37 km/h 49% 0.0 mm
17:24 23.3 °C 12.2 °C 1004.2 hPa Sur 20 km/h 29.6 km/h 49.5% 0.0 mm
17:29 22.8 °C 12.5 °C 1004.2 hPa Sur 18 km/h 25.7 km/h 52.3% 0.0 mm
17:34 22.2 °C 12.6 °C 1004.2 hPa Sur 14.8 km/h 20.9 km/h 54.6% 0.0 mm
17:39 22.1 °C 12.2 °C 1004.2 hPa SSO 11.9 km/h 35.9 km/h 53.7% 0.0 mm
17:44 22.7 °C 12 °C 1004.1 hPa SSO 13.8 km/h 35.9 km/h 50.7% 0.0 mm
17:49 23.1 °C 12 °C 1004.1 hPa SSO 15.6 km/h 35.4 km/h 49.7% 0.0 mm
17:54 23.2 °C 11.8 °C 1004.1 hPa SSO 18 km/h 40.7 km/h 49% 0.0 mm
17:59 23.3 °C 11.8 °C 1004.1 hPa SSO 20.1 km/h 41.2 km/h 48.6% 0.0 mm
18:04 23.3 °C 11.7 °C 1004.1 hPa SSO 21.4 km/h 41.8 km/h 48% 0.0 mm
18:09 23.3 °C 11.7 °C 1004.1 hPa SSO 22.5 km/h 40.7 km/h 48% 0.0 mm
18:14 23.3 °C 11.7 °C 1003.9 hPa SO 22.5 km/h 40.2 km/h 48% 0.0 mm
18:19 23.3 °C 11.7 °C 1003.9 hPa SSO 22.5 km/h 48.1 km/h 48% 0.0 mm
18:24 23.4 °C 11.8 °C 1004.0 hPa SSO 23.1 km/h 48.3 km/h 48% 0.0 mm
18:29 23.4 °C 11.8 °C 1004.0 hPa SSO 23.7 km/h 44.9 km/h 48% 0.0 mm
18:34 23.4 °C 11.6 °C 1004.0 hPa SSO 24.4 km/h 45.1 km/h 47.3% 0.0 mm
18:39 23.4 °C 11.4 °C 1004.3 hPa SSO 25.1 km/h 40.2 km/h 47% 0.0 mm
18:44 23.4 °C 11.5 °C 1004.3 hPa SO 24.8 km/h 40.2 km/h 47.3% 0.0 mm
18:49 23.3 °C 11.7 °C 1004.3 hPa SSO 24.5 km/h 38.6 km/h 48% 0.0 mm
18:54 23.2 °C 11.6 °C 1004.6 hPa SO 22.1 km/h 35.4 km/h 48% 0.0 mm
18:59 23.2 °C 11.6 °C 1004.6 hPa SSO 20.1 km/h 33.8 km/h 48% 0.0 mm
19:04 23.2 °C 11.6 °C 1004.6 hPa SSO 19.1 km/h 33.8 km/h 48% 0.0 mm
19:09 23.2 °C 11.6 °C 1005.1 hPa SSO 18.4 km/h 30.6 km/h 48% 0.0 mm
19:14 23.2 °C 11.6 °C 1005.1 hPa SSO 18.4 km/h 35.9 km/h 48% 0.0 mm
19:19 23.2 °C 11.4 °C 1005.1 hPa SSO 18.4 km/h 35.4 km/h 47.4% 0.0 mm
19:24 23.3 °C 11.3 °C 1005.4 hPa SO 18.7 km/h 37.8 km/h 47% 0.0 mm
19:29 23.3 °C 11.3 °C 1005.4 hPa SSO 19 km/h 37 km/h 47% 0.0 mm
19:34 23.2 °C 11.3 °C 1005.4 hPa SSO 19.4 km/h 37 km/h 47.2% 0.0 mm
19:39 23.2 °C 11.4 °C 1005.4 hPa SSO 19.8 km/h 37 km/h 47.5% 0.0 mm
19:44 23.2 °C 11.4 °C 1005.4 hPa SSO 20 km/h 37 km/h 47.6% 0.0 mm
19:49 23 °C 11.4 °C 1005.4 hPa SSO 20.1 km/h 30.6 km/h 48% 0.0 mm
19:54 23 °C 11.4 °C 1005.5 hPa SSO 19.2 km/h 30.6 km/h 48% 0.0 mm
19:59 22.9 °C 11.2 °C 1005.5 hPa SO 18.4 km/h 34.3 km/h 47.5% 0.0 mm
20:04 23 °C 11.1 °C 1005.5 hPa SSO 18.7 km/h 40.7 km/h 47% 0.0 mm
20:09 23.1 °C 11 °C 1005.5 hPa SSO 19 km/h 40.7 km/h 46.5% 0.0 mm
20:14 23.1 °C 11.1 °C 1005.5 hPa SO 19.4 km/h 35.2 km/h 46.9% 0.0 mm
20:19 23.1 °C 11.1 °C 1005.5 hPa SO 19.8 km/h 35.4 km/h 46.9% 0.0 mm
20:24 23 °C 11 °C 1005.8 hPa SO 19.8 km/h 30.6 km/h 47% 0.0 mm
20:29 22.9 °C 11 °C 1005.8 hPa SO 19.8 km/h 33.5 km/h 47% 0.0 mm
20:34 22.8 °C 10.9 °C 1005.8 hPa SO 18.2 km/h 33.8 km/h 47% 0.0 mm
20:39 22.8 °C 10.9 °C 1006.2 hPa SO 17.2 km/h 32.2 km/h 47% 0.0 mm
20:44 22.7 °C 10.8 °C 1006.2 hPa SO 16.7 km/h 32.2 km/h 47% 0.0 mm
20:49 22.7 °C 10.8 °C 1006.2 hPa SO 16.4 km/h 35.2 km/h 47% 0.0 mm
20:54 22.8 °C 10.9 °C 1006.6 hPa SO 17.4 km/h 37.8 km/h 47% 0.0 mm
20:59 23 °C 11 °C 1006.6 hPa SO 18 km/h 42.6 km/h 46.9% 0.0 mm
21:04 23 °C 10.8 °C 1006.6 hPa SO 20.6 km/h 41.8 km/h 46% 0.0 mm
21:09 23 °C 10.7 °C 1006.6 hPa SSO 21.7 km/h 38.9 km/h 45.8% 0.0 mm
21:14 23 °C 10.4 °C 1006.5 hPa SSO 20.8 km/h 38.6 km/h 45% 0.0 mm
21:19 22.9 °C 10 °C 1006.5 hPa SSO 20.1 km/h 35.2 km/h 44.1% 0.0 mm
21:24 22.8 °C 9.9 °C 1006.7 hPa SSO 19.1 km/h 35.4 km/h 44% 0.0 mm
21:29 22.7 °C 9.8 °C 1006.7 hPa SSO 18.4 km/h 30.6 km/h 44% 0.0 mm
21:34 22.5 °C 9.6 °C 1006.7 hPa SO 18.2 km/h 33.5 km/h 43.9% 0.0 mm
21:39 22.6 °C 9.4 °C 1007.3 hPa SO 18 km/h 35.2 km/h 43% 0.0 mm
21:44 22.4 °C 9.2 °C 1007.3 hPa SO 19.8 km/h 35.4 km/h 42.9% 0.0 mm
21:49 22.3 °C 8.9 °C 1007.3 hPa SO 20.9 km/h 30.6 km/h 42.4% 0.0 mm
21:54 22.2 °C 8.8 °C 1007.4 hPa SO 18.2 km/h 35.2 km/h 42.6% 0.0 mm
21:59 22.1 °C 8.5 °C 1007.4 hPa SO 16.4 km/h 35.4 km/h 41.9% 0.0 mm
22:04 22.2 °C 8.1 °C 1007.4 hPa SO 17.5 km/h 43.1 km/h 40.5% 0.0 mm
22:09 22.3 °C 7.8 °C 1007.4 hPa SO 18 km/h 50.1 km/h 39.3% 0.0 mm
22:14 22.4 °C 7.5 °C 1007.4 hPa SO 21.5 km/h 49.9 km/h 38.2% 0.0 mm
22:19 22.4 °C 7.5 °C 1007.4 hPa SO 23.7 km/h 46.7 km/h 38.4% 0.0 mm
22:24 22.2 °C 7.8 °C 1007.6 hPa SO 22.9 km/h 38.6 km/h 39.6% 0.0 mm
22:29 22 °C 7.8 °C 1007.6 hPa SO 22.5 km/h 32.2 km/h 40% 0.0 mm
22:34 21.9 °C 7.7 °C 1007.6 hPa SSO 20.3 km/h 35.2 km/h 40% 0.0 mm
22:39 21.8 °C 7.6 °C 1007.6 hPa SO 19 km/h 35.4 km/h 40% 0.0 mm
22:44 21.7 °C 7.4 °C 1007.6 hPa SO 18.6 km/h 33.8 km/h 40% 0.0 mm
22:49 21.6 °C 7 °C 1007.6 hPa SSO 18.4 km/h 34.3 km/h 38.9% 0.0 mm
22:54 21.7 °C 6.7 °C 1007.9 hPa SO 18.2 km/h 33.8 km/h 37.9% 0.0 mm
22:59 21.7 °C 6.3 °C 1007.9 hPa SSO 18 km/h 44.4 km/h 36.9% 0.0 mm
23:04 21.7 °C 5.9 °C 1007.9 hPa SSO 19.4 km/h 45.1 km/h 35.7% 0.0 mm
23:09 21.8 °C 5.6 °C 1008.2 hPa SSO 20.1 km/h 37 km/h 34.9% 0.0 mm
23:14 21.8 °C 5.2 °C 1008.2 hPa SO 21.1 km/h 35.4 km/h 34% 0.0 mm
23:19 21.8 °C 4.9 °C 1008.2 hPa SO 21.7 km/h 38.9 km/h 33.2% 0.0 mm
23:24 21.8 °C 4.8 °C 1008.7 hPa SO 22.2 km/h 38.9 km/h 33% 0.0 mm
23:29 21.7 °C 4.7 °C 1008.7 hPa OSO 22.5 km/h 35.4 km/h 32.9% 0.0 mm
23:34 21.7 °C 4.3 °C 1008.7 hPa SO 20 km/h 34.3 km/h 32.2% 0.0 mm
23:39 21.6 °C 4.2 °C 1008.9 hPa OSO 18.4 km/h 33.8 km/h 32% 0.0 mm
23:44 21.5 °C 4.1 °C 1008.9 hPa SO 18.2 km/h 29 km/h 32% 0.0 mm
23:49 21.6 °C 4.1 °C 1008.9 hPa SO 18 km/h 34.3 km/h 32% 0.0 mm
23:54 21.6 °C 4.3 °C 1009.2 hPa SO 18.2 km/h 33.8 km/h 32.2% 0.0 mm
23:59 21.5 °C 4.6 °C 1009.2 hPa SO 18.4 km/h 35.2 km/h 33% 0.0 mm
Murcia-Puente Tocinos, España
Compliments of Weather Underground - 3 mb

La estación de MeteoMurcia.com, publica sus datos en los siguientes proyectos:

Weather Underground PWS IMURCIAP2 Meteoclimatic www.awekas.at

W3Counter
Web Analytics